Time;durP1;ratioP1;P1;durP2;ratioP2;P2;SDS_P1;SDS_P2;PMS_P1;PMS_P2;Temp;Humidity;BMP_temperature;BMP_pressure;BME280_temperature;BME280_humidity;BME280_pressure;Samples;Min_cycle;Max_cycle;Signal;HPM_P1;HPM_P2
2023/03/26 00:01:37;;;;;;;2.78;1.83;;;21.70;53.20;;;;;;5073816;28;20195;-58
2023/03/26 00:04:10;;;;;;;3.40;1.80;;;21.70;53.10;;;;;;5073620;28;20191;-58
2023/03/26 00:06:41;;;;;;;2.53;1.88;;;21.70;53.10;;;;;;5073890;28;20225;-58
2023/03/26 00:09:14;;;;;;;3.47;1.70;;;21.70;53.00;;;;;;5073264;28;20250;-58
2023/03/26 00:11:46;;;;;;;3.60;2.00;;;21.80;53.00;;;;;;5073879;28;20214;-59
2023/03/26 00:14:16;;;;;;;2.53;1.73;;;21.80;53.00;;;;;;5073811;28;20243;-59
2023/03/26 00:16:48;;;;;;;4.05;1.73;;;21.80;53.00;;;;;;5073264;28;20202;-58
2023/03/26 00:19:21;;;;;;;4.53;2.25;;;21.80;53.00;;;;;;5074619;28;20226;-59
2023/03/26 00:21:52;;;;;;;2.63;1.55;;;21.90;53.00;;;;;;5075544;28;20187;-58
2023/03/26 00:24:28;;;;;;;4.20;2.00;;;21.90;52.90;;;;;;5072865;28;20210;-58
2023/03/26 00:26:59;;;;;;;3.40;1.42;;;21.90;52.90;;;;;;5073574;28;20265;-59
2023/03/26 00:29:32;;;;;;;3.33;1.50;;;21.90;53.00;;;;;;5073507;28;20251;-59
2023/03/26 00:32:03;;;;;;;3.97;1.73;;;21.90;53.20;;;;;;5073206;28;20237;-59
2023/03/26 00:34:35;;;;;;;3.42;1.45;;;22.00;53.30;;;;;;5073053;28;20218;-60
2023/03/26 00:37:06;;;;;;;3.40;1.52;;;22.00;53.30;;;;;;5081301;28;20190;-60
2023/03/26 00:39:38;;;;;;;3.10;1.30;;;22.00;53.30;;;;;;5093587;28;20577;-58
2023/03/26 00:42:08;;;;;;;3.72;1.52;;;22.00;53.30;;;;;;5092908;28;20221;-59
2023/03/26 00:44:39;;;;;;;3.55;1.30;;;22.10;53.50;;;;;;5092791;28;20186;-58
2023/03/26 00:47:10;;;;;;;2.97;1.40;;;22.10;53.40;;;;;;5093553;28;20662;-59
2023/03/26 00:49:45;;;;;;;4.00;1.30;;;22.10;53.30;;;;;;5093224;28;20712;-59
2023/03/26 00:52:17;;;;;;;3.25;1.10;;;22.10;53.30;;;;;;5093101;28;20633;-60
2023/03/26 00:54:48;;;;;;;5.07;1.20;;;22.20;53.50;;;;;;5093340;28;20673;-59
2023/03/26 00:57:19;;;;;;;5.70;1.10;;;22.20;53.10;;;;;;5079996;28;20677;-59
2023/03/26 00:59:53;;;;;;;6.97;1.38;;;22.10;52.90;;;;;;5072853;28;20258;-60
2023/03/26 01:02:26;;;;;;;5.63;1.13;;;22.10;52.80;;;;;;5072958;28;20199;-59
2023/03/26 01:05:03;;;;;;;2.30;0.95;;;22.10;52.80;;;;;;5072934;28;20230;-60
2023/03/26 01:07:34;;;;;;;4.20;1.17;;;22.10;52.80;;;;;;5072840;28;20240;-59
2023/03/26 01:10:04;;;;;;;4.47;1.02;;;22.10;52.90;;;;;;5072873;28;20281;-59
2023/03/26 01:12:35;;;;;;;4.32;1.20;;;22.10;52.90;;;;;;5072588;28;20264;-60
2023/03/26 01:15:07;;;;;;;4.00;1.00;;;22.10;52.80;;;;;;5072392;28;20206;-60
2023/03/26 01:17:38;;;;;;;3.40;1.13;;;22.10;52.40;;;;;;5072434;28;20252;-54
2023/03/26 01:20:18;;;;;;;4.15;0.90;;;22.10;52.20;;;;;;5072695;28;20651;-54
2023/03/26 01:22:52;;;;;;;5.15;1.02;;;22.00;52.20;;;;;;5072780;28;20205;-57
2023/03/26 01:25:27;;;;;;;4.22;1.20;;;22.00;52.30;;;;;;5071936;28;20250;-57
2023/03/26 01:28:02;;;;;;;4.22;1.00;;;22.00;52.40;;;;;;5071723;28;20222;-57
2023/03/26 01:30:40;;;;;;;3.70;1.08;;;22.00;53.10;;;;;;5071776;28;20418;-58
2023/03/26 01:33:17;;;;;;;4.13;0.93;;;22.00;52.60;;;;;;5071855;28;20217;-55
2023/03/26 01:35:54;;;;;;;2.10;0.73;;;22.00;52.60;;;;;;5071877;28;20210;-58
2023/03/26 01:38:34;;;;;;;4.07;0.88;;;22.00;52.60;;;;;;5072162;28;20218;-59
2023/03/26 01:41:10;;;;;;;4.50;1.10;;;22.00;52.50;;;;;;5071830;28;20202;-58
2023/03/26 01:43:47;;;;;;;3.55;1.05;;;22.10;52.60;;;;;;5071856;28;20198;-58
2023/03/26 01:46:20;;;;;;;3.70;1.45;;;22.10;52.60;;;;;;5071720;28;20225;-59
2023/03/26 01:48:51;;;;;;;2.47;0.93;;;22.10;52.50;;;;;;5071542;28;20250;-59
2023/03/26 01:51:30;;;;;;;2.78;1.00;;;22.10;52.50;;;;;;5071374;28;20190;-58
2023/03/26 01:54:01;;;;;;;2.45;1.08;;;22.10;52.50;;;;;;5070973;28;20617;-59
2023/03/26 01:56:39;;;;;;;3.40;0.90;;;22.20;52.50;;;;;;5071741;28;20191;-59
2023/03/26 01:59:30;;;;;;;1.85;0.80;;;22.20;52.50;;;;;;5071687;28;20615;-57
2023/03/26 02:02:07;;;;;;;2.97;0.98;;;22.20;52.50;;;;;;5071266;28;20198;-58
2023/03/26 02:04:43;;;;;;;2.92;1.10;;;22.20;52.40;;;;;;5071722;28;20572;-59
2023/03/26 02:07:23;;;;;;;2.53;0.70;;;22.20;52.40;;;;;;5071875;28;20227;-58
2023/03/26 02:09:58;;;;;;;3.25;0.88;;;22.30;52.40;;;;;;5071621;28;20222;-59
2023/03/26 02:12:32;;;;;;;2.58;0.90;;;22.20;52.30;;;;;;5071542;28;20209;-57
2023/03/26 02:15:04;;;;;;;2.35;0.82;;;22.30;52.30;;;;;;5071181;28;20542;-59
2023/03/26 02:17:35;;;;;;;2.40;0.70;;;22.30;52.30;;;;;;5071109;28;20202;-58
2023/03/26 02:20:06;;;;;;;2.05;0.70;;;22.30;52.20;;;;;;5071096;28;20206;-57
2023/03/26 02:22:39;;;;;;;2.58;0.80;;;22.30;52.20;;;;;;5071022;28;20237;-58
2023/03/26 02:25:11;;;;;;;2.70;0.73;;;22.30;52.20;;;;;;5071295;28;20210;-58
2023/03/26 02:27:44;;;;;;;1.85;0.80;;;22.40;52.20;;;;;;5073883;28;20195;-57
2023/03/26 02:30:18;;;;;;;3.17;0.95;;;22.40;52.10;;;;;;5074053;28;20206;-59
2023/03/26 02:32:50;;;;;;;2.35;0.80;;;22.40;52.10;;;;;;5071558;28;20195;-59
2023/03/26 02:35:22;;;;;;;2.45;0.93;;;22.40;52.10;;;;;;5071684;28;20911;-59
2023/03/26 02:37:52;;;;;;;5.00;1.20;;;22.40;52.10;;;;;;5071286;28;20230;-57
2023/03/26 02:40:26;;;;;;;4.20;0.90;;;22.40;52.60;;;;;;5070540;28;20581;-59
2023/03/26 02:42:59;;;;;;;2.33;1.08;;;22.50;52.10;;;;;;5092687;28;20190;-59
2023/03/26 02:45:30;;;;;;;3.95;1.10;;;22.40;52.10;;;;;;5095374;28;20498;-57
2023/03/26 02:48:01;;;;;;;7.05;1.63;;;22.50;52.10;;;;;;5095359;28;20217;-57
2023/03/26 02:50:35;;;;;;;6.00;1.20;;;22.50;51.70;;;;;;5095393;28;20194;-58
2023/03/26 02:53:06;;;;;;;4.63;1.30;;;22.40;51.60;;;;;;5094923;28;20205;-58
2023/03/26 02:55:37;;;;;;;3.40;1.00;;;22.40;51.70;;;;;;5094950;28;20198;-58
2023/03/26 02:58:11;;;;;;;3.92;1.23;;;22.40;51.70;;;;;;5074927;28;20222;-58
2023/03/26 03:00:41;;;;;;;3.67;1.38;;;22.40;51.70;;;;;;5074882;28;20202;-56
2023/03/26 03:03:12;;;;;;;5.63;1.20;;;22.40;52.40;;;;;;5074855;28;20190;-57
2023/03/26 03:05:43;;;;;;;2.67;1.00;;;22.30;51.70;;;;;;5074569;28;20191;-56
2023/03/26 03:08:13;;;;;;;6.95;1.60;;;22.30;51.70;;;;;;5074049;28;20211;-56
2023/03/26 03:10:44;;;;;;;2.67;0.90;;;22.40;51.80;;;;;;5074599;28;20198;-54
2023/03/26 03:13:17;;;;;;;4.32;1.00;;;22.40;51.90;;;;;;5074848;28;20565;-57
2023/03/26 03:15:47;;;;;;;3.83;0.98;;;22.40;51.90;;;;;;5074835;28;20198;-58
2023/03/26 03:18:18;;;;;;;2.53;0.80;;;22.40;51.80;;;;;;5074668;28;20222;-54
2023/03/26 03:20:48;;;;;;;2.97;1.08;;;22.40;51.90;;;;;;5074698;28;20210;-57
2023/03/26 03:23:19;;;;;;;2.83;0.90;;;22.40;51.90;;;;;;5074852;28;20696;-56
2023/03/26 03:25:55;;;;;;;1.83;1.00;;;22.40;51.90;;;;;;5073806;28;20545;-57
2023/03/26 03:28:29;;;;;;;3.72;0.90;;;22.40;51.80;;;;;;5074156;28;20579;-55
2023/03/26 03:31:00;;;;;;;5.43;1.20;;;22.40;51.90;;;;;;5074589;28;20198;-58
2023/03/26 03:33:31;;;;;;;2.30;0.63;;;22.40;51.80;;;;;;5074758;28;20203;-56
2023/03/26 03:36:09;;;;;;;2.90;1.05;;;22.40;51.80;;;;;;5074653;28;20205;-56
2023/03/26 03:38:39;;;;;;;2.17;0.98;;;22.40;51.80;;;;;;5074115;28;20211;-56
2023/03/26 03:41:11;;;;;;;2.20;0.90;;;22.50;51.80;;;;;;5074576;28;20191;-56
2023/03/26 03:43:43;;;;;;;2.05;0.82;;;22.50;51.80;;;;;;5074209;28;20195;-57
2023/03/26 03:46:14;;;;;;;3.47;0.93;;;22.50;51.80;;;;;;5074242;28;20226;-56
2023/03/26 03:48:48;;;;;;;2.63;1.00;;;22.50;51.80;;;;;;5074419;28;20210;-56
2023/03/26 03:51:19;;;;;;;3.05;1.10;;;22.50;51.80;;;;;;5074154;28;20203;-58
2023/03/26 03:53:49;;;;;;;2.47;0.95;;;22.50;51.70;;;;;;5073600;28;20191;-56
2023/03/26 03:56:22;;;;;;;3.78;0.90;;;22.50;51.70;;;;;;5073765;28;20206;-56
2023/03/26 03:58:57;;;;;;;3.78;0.98;;;22.50;51.70;;;;;;5073859;28;20716;-56
2023/03/26 04:01:29;;;;;;;2.25;0.63;;;22.50;51.60;;;;;;5072905;28;20547;-56
2023/03/26 04:04:00;;;;;;;3.55;0.90;;;22.50;51.60;;;;;;5073791;28;20198;-51
2023/03/26 04:06:31;;;;;;;3.00;0.90;;;22.50;51.60;;;;;;5073757;28;20234;-54
2023/03/26 04:09:01;;;;;;;2.50;0.98;;;22.50;51.60;;;;;;5072342;28;20257;-52
2023/03/26 04:11:32;;;;;;;3.88;0.90;;;22.50;51.60;;;;;;5081390;28;20672;-57
2023/03/26 04:14:05;;;;;;;3.42;0.90;;;22.50;51.60;;;;;;5088606;28;20670;-55
2023/03/26 04:16:35;;;;;;;2.13;0.70;;;22.50;51.70;;;;;;5081710;28;20650;-55
2023/03/26 04:19:07;;;;;;;2.83;0.90;;;22.50;51.60;;;;;;5093639;28;20218;-55
2023/03/26 04:21:38;;;;;;;3.17;0.98;;;22.50;52.20;;;;;;5085871;28;20219;-54
2023/03/26 04:24:09;;;;;;;2.95;1.00;;;22.50;51.60;;;;;;5072816;28;20558;-54
2023/03/26 04:26:40;;;;;;;2.85;0.93;;;22.50;51.50;;;;;;5076505;28;20225;-53
2023/03/26 04:29:17;;;;;;;3.80;1.60;;;22.50;51.50;;;;;;5092650;28;20214;-57
2023/03/26 04:31:49;;;;;;;4.93;1.05;;;22.50;51.50;;;;;;5093250;28;20190;-56
2023/03/26 04:34:24;;;;;;;2.70;0.88;;;22.60;51.60;;;;;;5093105;28;20245;-53
2023/03/26 04:36:55;;;;;;;2.63;0.90;;;22.50;51.50;;;;;;5092733;28;20189;-55
2023/03/26 04:39:27;;;;;;;2.35;0.82;;;22.50;51.50;;;;;;5092736;28;20845;-57
2023/03/26 04:41:59;;;;;;;3.08;0.90;;;22.50;51.50;;;;;;5092800;28;20255;-58
2023/03/26 04:44:33;;;;;;;1.90;0.80;;;22.50;51.50;;;;;;5092387;28;20259;-54
2023/03/26 04:47:04;;;;;;;1.80;0.70;;;22.50;51.50;;;;;;5092575;28;20253;-55
2023/03/26 04:49:35;;;;;;;1.92;0.80;;;22.50;51.50;;;;;;5092004;28;20570;-57
2023/03/26 04:52:05;;;;;;;3.65;1.10;;;22.50;51.50;;;;;;5092493;28;20186;-55
2023/03/26 04:54:36;;;;;;;2.72;0.80;;;22.50;51.50;;;;;;5092219;28;20190;-55
2023/03/26 04:57:10;;;;;;;2.53;0.85;;;22.50;51.50;;;;;;5091466;28;20205;-56
2023/03/26 04:59:42;;;;;;;2.70;1.13;;;22.50;51.50;;;;;;5091209;28;20221;-54
2023/03/26 05:02:14;;;;;;;2.13;0.70;;;22.50;51.50;;;;;;5092553;28;20194;-54
2023/03/26 05:04:45;;;;;;;2.58;1.00;;;22.50;51.50;;;;;;5075225;28;20205;-55
2023/03/26 05:07:20;;;;;;;3.03;1.30;;;22.50;51.50;;;;;;5095090;28;20214;-54
2023/03/26 05:09:51;;;;;;;2.97;0.70;;;22.50;51.50;;;;;;5111844;28;20236;-55
2023/03/26 05:12:21;;;;;;;3.05;1.10;;;22.50;51.50;;;;;;5112269;28;20213;-55
2023/03/26 05:14:54;;;;;;;2.65;0.90;;;22.50;51.50;;;;;;5112252;27;20201;-55
2023/03/26 05:17:25;;;;;;;2.13;0.90;;;22.50;51.50;;;;;;5112285;27;20193;-55
2023/03/26 05:19:56;;;;;;;2.78;0.65;;;22.50;51.50;;;;;;5112574;28;20222;-56
2023/03/26 05:22:27;;;;;;;3.28;0.73;;;22.50;51.50;;;;;;5111656;28;20196;-57
2023/03/26 05:24:58;;;;;;;3.97;1.20;;;22.50;51.50;;;;;;5112479;28;20213;-57
2023/03/26 05:27:28;;;;;;;2.85;1.00;;;22.50;51.50;;;;;;5095159;28;20218;-56
2023/03/26 05:30:06;;;;;;;2.72;1.00;;;22.50;51.50;;;;;;5092821;28;20221;-56
2023/03/26 05:32:37;;;;;;;2.40;1.10;;;22.50;51.60;;;;;;5092964;28;20201;-55
2023/03/26 05:35:08;;;;;;;1.70;1.02;;;22.50;51.50;;;;;;5093311;28;20224;-57
2023/03/26 05:37:39;;;;;;;1.80;1.38;;;22.40;51.50;;;;;;5092020;28;20655;-55
2023/03/26 05:40:12;;;;;;;3.85;1.92;;;22.50;51.50;;;;;;5092018;28;20612;-54
2023/03/26 05:42:44;;;;;;;2.80;1.80;;;22.50;51.50;;;;;;5093269;28;20209;-56
2023/03/26 05:45:17;;;;;;;3.85;2.33;;;22.50;51.50;;;;;;5092546;28;20843;-55
2023/03/26 05:47:48;;;;;;;6.35;3.03;;;22.50;51.50;;;;;;5092556;28;20233;-56
2023/03/26 05:50:19;;;;;;;4.20;2.40;;;22.50;51.50;;;;;;5091336;28;20205;-56
2023/03/26 05:52:49;;;;;;;4.18;2.90;;;22.40;51.50;;;;;;5092114;28;20198;-56
2023/03/26 05:55:20;;;;;;;5.32;3.28;;;22.40;51.50;;;;;;5091726;28;20565;-54
2023/03/26 05:57:51;;;;;;;5.68;3.00;;;22.40;51.50;;;;;;5087498;28;20277;-55
2023/03/26 06:00:24;;;;;;;3.28;2.42;;;22.40;51.60;;;;;;5090010;28;20205;-55
2023/03/26 06:02:55;;;;;;;4.72;2.80;;;22.40;51.50;;;;;;5090522;28;20190;-57
2023/03/26 06:05:25;;;;;;;3.78;2.67;;;22.40;51.50;;;;;;5071868;28;20230;-57
2023/03/26 06:07:56;;;;;;;4.63;2.80;;;22.40;51.50;;;;;;5097882;28;20221;-56
2023/03/26 06:10:27;;;;;;;3.92;2.58;;;22.40;51.50;;;;;;5111747;28;20197;-54
2023/03/26 06:12:57;;;;;;;3.40;2.70;;;22.40;51.50;;;;;;5111704;28;20197;-56
2023/03/26 06:15:30;;;;;;;3.63;2.45;;;22.40;51.60;;;;;;5111274;28;20190;-58
2023/03/26 06:18:01;;;;;;;4.47;2.53;;;22.40;51.60;;;;;;5109445;28;20210;-56
2023/03/26 06:20:31;;;;;;;4.53;2.25;;;22.40;51.60;;;;;;5107384;28;20202;-56
2023/03/26 06:23:02;;;;;;;2.63;2.00;;;22.40;51.60;;;;;;5075134;28;20195;-54
2023/03/26 06:25:33;;;;;;;3.28;2.10;;;22.40;51.60;;;;;;5070258;28;20195;-57
2023/03/26 06:28:03;;;;;;;4.20;2.53;;;22.40;51.60;;;;;;5090074;28;20308;-57
2023/03/26 06:30:36;;;;;;;4.93;2.42;;;22.40;51.60;;;;;;5090195;28;20198;-54
2023/03/26 06:33:06;;;;;;;3.38;2.45;;;22.40;51.60;;;;;;5090905;28;20194;-56
2023/03/26 06:35:37;;;;;;;3.78;2.30;;;22.40;51.60;;;;;;5091001;28;20201;-54
2023/03/26 06:38:08;;;;;;;4.03;2.28;;;22.40;51.60;;;;;;5090685;28;20214;-57
2023/03/26 06:40:39;;;;;;;5.00;2.50;;;22.40;51.70;;;;;;5089910;28;20198;-55
2023/03/26 06:43:10;;;;;;;3.75;2.08;;;22.30;51.60;;;;;;5090873;28;20209;-57
2023/03/26 06:45:43;;;;;;;4.35;2.38;;;22.30;51.60;;;;;;5090107;28;20205;-58
2023/03/26 06:48:13;;;;;;;3.08;1.77;;;22.30;51.60;;;;;;5090558;28;20226;-55
2023/03/26 06:50:44;;;;;;;3.28;2.00;;;22.30;51.60;;;;;;5090656;28;20205;-55
2023/03/26 06:53:15;;;;;;;3.53;2.17;;;22.30;51.60;;;;;;5090864;28;20197;-53
2023/03/26 06:55:45;;;;;;;3.13;2.15;;;22.30;51.60;;;;;;5090599;28;20202;-54
2023/03/26 06:58:16;;;;;;;4.07;1.73;;;22.30;51.60;;;;;;5070907;28;20214;-55
2023/03/26 07:00:49;;;;;;;3.60;2.03;;;22.30;51.60;;;;;;5070692;28;20732;-55
2023/03/26 07:03:20;;;;;;;2.97;2.15;;;22.30;51.60;;;;;;5070976;28;20206;-50
2023/03/26 07:05:50;;;;;;;4.18;2.17;;;22.30;51.60;;;;;;5070588;28;20195;-54
2023/03/26 07:08:21;;;;;;;2.83;2.00;;;22.30;51.60;;;;;;5070709;28;20234;-56
2023/03/26 07:10:52;;;;;;;3.13;2.03;;;22.30;52.20;;;;;;5070869;28;20679;-54
2023/03/26 07:13:22;;;;;;;4.45;2.65;;;22.30;51.60;;;;;;5071117;28;20202;-54
2023/03/26 07:15:55;;;;;;;4.57;2.50;;;22.30;51.60;;;;;;5071061;28;20205;-52
2023/03/26 07:18:26;;;;;;;4.10;2.10;;;22.30;51.60;;;;;;5070989;28;20214;-53
2023/03/26 07:20:57;;;;;;;5.32;2.30;;;22.30;51.60;;;;;;5071038;28;20199;-55
2023/03/26 07:23:28;;;;;;;5.20;2.60;;;22.30;51.70;;;;;;5071138;28;20202;-56
2023/03/26 07:25:59;;;;;;;5.45;2.22;;;22.30;52.10;;;;;;5070846;28;20206;-55
2023/03/26 07:28:38;;;;;;;4.57;2.70;;;22.30;52.30;;;;;;5080450;28;20230;-53
2023/03/26 07:31:27;;;;;;;2.58;2.00;;;22.30;52.60;;;;;;5094743;28;20802;-55
2023/03/26 07:34:06;;;;;;;4.25;2.10;;;22.30;52.60;;;;;;5094459;28;20194;-49
2023/03/26 07:36:42;;;;;;;3.97;2.10;;;22.30;52.50;;;;;;5094302;28;20201;-49
2023/03/26 07:39:24;;;;;;;3.70;2.10;;;22.30;52.40;;;;;;5094213;28;20225;-50
2023/03/26 07:42:05;;;;;;;6.15;2.28;;;22.40;52.40;;;;;;5094335;28;20205;-53
2023/03/26 07:44:52;;;;;;;2.97;1.83;;;22.30;52.20;;;;;;5094550;28;20194;-49
2023/03/26 07:47:30;;;;;;;4.40;2.20;;;22.40;52.30;;;;;;5094453;28;20225;-49
2023/03/26 07:50:01;;;;;;;6.75;2.50;;;22.40;52.20;;;;;;5094331;28;20232;-48
2023/03/26 07:52:33;;;;;;;4.03;2.15;;;22.40;52.20;;;;;;5094359;28;20194;-52
2023/03/26 07:55:04;;;;;;;3.83;1.77;;;22.40;52.20;;;;;;5094151;28;20194;-51
2023/03/26 07:57:47;;;;;;;4.47;2.20;;;22.40;52.10;;;;;;5094070;28;20258;-50
2023/03/26 08:00:21;;;;;;;4.90;2.40;;;22.30;52.00;;;;;;5094113;28;20213;-51
2023/03/26 08:03:15;;;;;;;3.60;2.17;;;22.30;52.00;;;;;;5094155;28;20201;-50
2023/03/26 08:05:53;;;;;;;4.18;2.40;;;22.30;52.00;;;;;;5093946;28;20650;-51
2023/03/26 08:08:33;;;;;;;6.30;2.20;;;22.30;51.90;;;;;;5093935;28;20308;-50
2023/03/26 08:11:17;;;;;;;3.47;1.98;;;22.30;51.90;;;;;;5093903;28;20198;-49
2023/03/26 08:13:59;;;;;;;3.53;2.40;;;22.30;51.90;;;;;;5090395;28;20581;-49
2023/03/26 08:16:37;;;;;;;3.05;2.15;;;22.30;51.90;;;;;;5073452;28;20210;-53
2023/03/26 08:19:23;;;;;;;3.47;2.20;;;22.30;51.90;;;;;;5075879;28;20587;-52
2023/03/26 08:21:55;;;;;;;3.65;2.20;;;22.20;51.80;;;;;;5073628;28;20201;-54
2023/03/26 08:24:35;;;;;;;3.88;2.15;;;22.20;51.80;;;;;;5081118;28;20198;-52
2023/03/26 08:27:12;;;;;;;3.63;2.10;;;22.20;51.80;;;;;;5081305;28;20190;-54
2023/03/26 08:29:50;;;;;;;3.78;2.20;;;22.20;51.80;;;;;;5083116;28;20215;-57
2023/03/26 08:32:25;;;;;;;4.25;1.80;;;22.20;51.80;;;;;;5082761;28;20214;-50
2023/03/26 08:34:58;;;;;;;3.28;1.90;;;22.20;51.80;;;;;;5090183;28;20186;-54
2023/03/26 08:37:29;;;;;;;4.20;2.30;;;22.20;51.80;;;;;;5077018;28;20194;-52
2023/03/26 08:40:00;;;;;;;3.70;2.17;;;22.20;52.00;;;;;;5071939;28;20222;-55
2023/03/26 08:43:24;;;;;;;2.78;1.95;;;22.20;51.80;;;;;;5082962;28;20191;-57
2023/03/26 08:46:29;;;;;;;3.17;2.03;;;22.10;51.70;;;;;;5062709;28;20190;-53
2023/03/26 08:49:46;;;;;;;2.28;1.70;;;22.10;51.70;;;;;;5088004;28;20213;-56
2023/03/26 08:52:57;;;;;;;2.50;1.92;;;22.10;51.70;;;;;;5047098;28;20198;-56
2023/03/26 08:55:50;;;;;;;3.53;1.88;;;22.10;51.70;;;;;;5069875;28;20197;-56
2023/03/26 08:58:55;;;;;;;3.58;2.10;;;22.00;51.60;;;;;;5069422;28;20225;-54
2023/03/26 09:01:51;;;;;;;3.25;2.13;;;22.00;51.70;;;;;;5068959;28;20462;-54
2023/03/26 09:04:47;;;;;;;3.92;2.08;;;22.00;51.70;;;;;;5070490;28;20726;-53
2023/03/26 09:07:47;;;;;;;3.25;1.92;;;22.00;51.70;;;;;;5087015;28;20233;-57
2023/03/26 09:11:01;;;;;;;2.78;1.73;;;22.00;51.70;;;;;;5089696;28;20194;-56
2023/03/26 09:14:01;;;;;;;2.40;1.50;;;21.90;51.70;;;;;;5089399;28;20198;-55
2023/03/26 09:17:11;;;;;;;3.58;1.85;;;21.90;51.70;;;;;;5089141;28;20633;-51
2023/03/26 09:20:31;;;;;;;5.72;1.90;;;21.90;51.70;;;;;;5089016;28;20222;-53
2023/03/26 09:23:35;;;;;;;4.43;1.90;;;21.90;51.70;;;;;;5042383;28;20194;-53
2023/03/26 09:26:26;;;;;;;3.22;1.90;;;21.90;51.70;;;;;;5045408;28;20187;-53
2023/03/26 09:29:31;;;;;;;2.58;1.75;;;21.90;51.70;;;;;;5066975;28;20242;-56
2023/03/26 09:32:40;;;;;;;3.95;2.00;;;21.80;51.70;;;;;;5085638;28;20641;-56
2023/03/26 09:35:22;;;;;;;2.78;1.55;;;21.80;51.70;;;;;;5088298;28;20204;-54
2023/03/26 09:38:02;;;;;;;3.95;1.98;;;21.80;51.70;;;;;;5108855;28;20668;-53
2023/03/26 09:40:41;;;;;;;2.58;1.80;;;21.80;51.80;;;;;;5108306;28;20197;-53
2023/03/26 09:43:36;;;;;;;2.60;1.70;;;21.80;51.80;;;;;;5109530;28;20228;-53
2023/03/26 09:46:23;;;;;;;2.60;1.83;;;21.80;51.80;;;;;;5109465;28;20713;-54
2023/03/26 09:49:26;;;;;;;2.38;1.80;;;21.70;51.80;;;;;;5091272;28;20226;-52
2023/03/26 09:52:08;;;;;;;2.65;1.73;;;21.70;51.80;;;;;;5065616;28;20198;-50
2023/03/26 09:55:11;;;;;;;2.10;1.73;;;21.70;51.80;;;;;;5088924;28;20198;-55
2023/03/26 09:58:09;;;;;;;2.67;1.75;;;21.70;51.80;;;;;;5070104;28;20194;-55
2023/03/26 10:00:49;;;;;;;3.33;1.77;;;21.70;51.80;;;;;;5068607;28;20210;-54
2023/03/26 10:03:54;;;;;;;3.08;1.80;;;21.70;51.80;;;;;;5068072;28;20201;-56
2023/03/26 10:06:45;;;;;;;2.30;1.55;;;21.70;51.80;;;;;;5074732;28;20201;-54
2023/03/26 10:09:39;;;;;;;3.45;1.75;;;21.60;51.80;;;;;;5084751;28;20241;-51
2023/03/26 10:12:30;;;;;;;2.95;1.90;;;21.60;51.70;;;;;;5082773;28;20186;-53
2023/03/26 10:15:19;;;;;;;3.58;1.77;;;21.60;51.80;;;;;;5088832;28;20830;-52
2023/03/26 10:18:06;;;;;;;3.70;1.92;;;21.60;51.80;;;;;;5089523;28;20196;-53
2023/03/26 10:20:57;;;;;;;2.40;1.67;;;21.60;51.80;;;;;;5088206;28;20220;-53
2023/03/26 10:23:48;;;;;;;3.78;1.70;;;21.60;51.80;;;;;;5086769;28;20245;-55
2023/03/26 10:26:33;;;;;;;4.30;2.30;;;21.50;51.80;;;;;;5071887;28;20190;-56
2023/03/26 10:29:27;;;;;;;3.00;1.50;;;21.50;51.80;;;;;;5085924;28;20237;-54
2023/03/26 10:32:07;;;;;;;2.78;1.55;;;21.50;51.80;;;;;;5089891;28;20185;-53
2023/03/26 10:35:00;;;;;;;2.67;1.42;;;21.50;51.70;;;;;;5088634;28;20189;-54
2023/03/26 10:37:44;;;;;;;3.00;1.80;;;21.50;51.70;;;;;;5088066;28;20201;-54
2023/03/26 10:40:28;;;;;;;2.42;1.52;;;21.50;51.80;;;;;;5080067;28;20206;-53
2023/03/26 10:43:30;;;;;;;4.15;1.90;;;21.40;51.70;;;;;;5078208;28;20531;-52
2023/03/26 10:46:30;;;;;;;2.63;1.70;;;21.40;51.80;;;;;;5078953;28;20182;-55
2023/03/26 10:49:27;;;;;;;2.03;1.33;;;21.40;51.80;;;;;;5055013;28;20215;-55
2023/03/26 10:51:59;;;;;;;2.95;1.80;;;21.40;51.80;;;;;;5077783;28;20223;-54
2023/03/26 10:54:43;;;;;;;2.50;1.73;;;21.40;51.80;;;;;;5076338;28;20190;-55
2023/03/26 10:57:26;;;;;;;2.42;1.33;;;21.30;51.80;;;;;;5074757;28;20195;-56
2023/03/26 10:59:59;;;;;;;2.45;1.70;;;21.30;51.80;;;;;;5076752;28;20598;-54
2023/03/26 11:02:31;;;;;;;2.50;1.40;;;21.30;51.80;;;;;;5075802;28;20190;-54
2023/03/26 11:05:27;;;;;;;3.20;1.83;;;21.30;51.80;;;;;;5077732;28;20205;-55
2023/03/26 11:08:03;;;;;;;1.92;1.42;;;21.30;51.80;;;;;;5079334;28;20234;-57
2023/03/26 11:10:49;;;;;;;2.65;1.83;;;21.30;52.00;;;;;;5080555;28;20681;-49
2023/03/26 11:13:27;;;;;;;1.95;1.48;;;21.30;51.80;;;;;;5081619;28;20202;-55
2023/03/26 11:16:02;;;;;;;2.83;1.60;;;21.30;51.70;;;;;;5081243;28;20191;-54
2023/03/26 11:18:42;;;;;;;2.90;1.60;;;21.20;51.80;;;;;;5080487;28;20222;-53
2023/03/26 11:21:25;;;;;;;2.38;1.40;;;21.20;51.80;;;;;;5082814;28;20191;-54
2023/03/26 11:24:10;;;;;;;2.65;1.70;;;21.20;51.80;;;;;;5083004;28;20662;-54
2023/03/26 11:26:51;;;;;;;3.38;1.73;;;21.20;51.80;;;;;;5081286;28;20191;-55
2023/03/26 11:29:33;;;;;;;1.75;1.50;;;21.20;51.90;;;;;;5083751;28;20317;-53
2023/03/26 11:32:07;;;;;;;2.80;1.58;;;21.10;51.80;;;;;;5084057;28;20201;-54
2023/03/26 11:34:43;;;;;;;2.25;1.52;;;21.10;51.80;;;;;;5083203;28;20194;-54
2023/03/26 11:37:20;;;;;;;2.17;1.63;;;21.10;51.80;;;;;;5082323;28;20195;-54
2023/03/26 11:39:54;;;;;;;2.22;1.58;;;21.10;51.80;;;;;;5088039;28;20304;-55
2023/03/26 11:42:28;;;;;;;2.30;1.50;;;21.10;51.80;;;;;;5093866;28;20217;-55
2023/03/26 11:45:01;;;;;;;2.22;1.63;;;21.10;51.90;;;;;;5094372;28;20197;-54
2023/03/26 11:47:37;;;;;;;2.25;1.42;;;21.10;51.90;;;;;;5094570;28;20194;-55
2023/03/26 11:50:11;;;;;;;2.88;1.75;;;21.10;51.90;;;;;;5094194;28;20232;-51
2023/03/26 11:52:41;;;;;;;2.58;1.52;;;21.10;51.90;;;;;;5094432;28;20194;-55
2023/03/26 11:55:15;;;;;;;2.95;1.50;;;21.10;51.90;;;;;;5094540;28;20190;-54
2023/03/26 11:57:54;;;;;;;1.98;1.15;;;21.00;51.80;;;;;;5093838;28;20198;-55
2023/03/26 12:00:27;;;;;;;1.95;1.52;;;21.00;51.90;;;;;;5093899;28;20212;-54
2023/03/26 12:03:00;;;;;;;2.85;1.60;;;21.00;51.80;;;;;;5094324;28;20195;-54
2023/03/26 12:05:35;;;;;;;2.15;1.30;;;21.00;51.90;;;;;;5094290;28;20198;-53
2023/03/26 12:08:19;;;;;;;1.98;1.33;;;21.00;51.90;;;;;;5085226;28;20214;-55
2023/03/26 12:11:00;;;;;;;1.90;1.27;;;21.00;51.90;;;;;;5073400;28;20565;-55
2023/03/26 12:13:38;;;;;;;2.67;1.50;;;21.00;51.90;;;;;;5091397;28;20244;-55
2023/03/26 12:16:15;;;;;;;3.08;1.70;;;20.90;51.90;;;;;;5092733;28;20198;-51
2023/03/26 12:18:47;;;;;;;3.08;1.45;;;20.90;51.90;;;;;;5090612;28;20218;-54
2023/03/26 12:21:19;;;;;;;3.08;1.60;;;20.90;51.80;;;;;;5093724;28;20541;-55
2023/03/26 12:24:00;;;;;;;3.60;1.40;;;20.90;51.90;;;;;;5093550;28;20190;-53
2023/03/26 12:26:40;;;;;;;1.85;1.30;;;20.90;51.90;;;;;;5093670;28;20216;-51
2023/03/26 12:29:15;;;;;;;2.40;1.73;;;20.90;51.90;;;;;;5093335;28;20225;-50
2023/03/26 12:31:58;;;;;;;1.83;1.40;;;20.90;51.90;;;;;;5092287;28;20696;-55
2023/03/26 12:34:33;;;;;;;3.08;1.50;;;20.80;51.80;;;;;;5093546;28;20205;-55
2023/03/26 12:37:06;;;;;;;2.20;1.48;;;20.80;51.80;;;;;;5093625;28;20626;-50
2023/03/26 12:39:39;;;;;;;2.17;1.35;;;20.80;51.80;;;;;;5093502;28;20214;-54
2023/03/26 12:42:29;;;;;;;3.10;1.70;;;20.80;51.90;;;;;;5093483;28;20229;-57
2023/03/26 12:45:01;;;;;;;2.60;1.35;;;20.80;51.90;;;;;;5093906;28;20303;-55
2023/03/26 12:47:33;;;;;;;2.33;1.20;;;20.80;51.80;;;;;;5093376;28;20243;-55
2023/03/26 12:50:04;;;;;;;2.15;1.38;;;20.70;51.80;;;;;;5093517;28;20228;-57
2023/03/26 12:52:57;;;;;;;2.10;1.25;;;20.70;51.80;;;;;;5093338;28;20255;-57
2023/03/26 12:55:42;;;;;;;1.92;1.20;;;20.70;51.90;;;;;;5084900;28;20213;-56
2023/03/26 12:58:37;;;;;;;3.17;1.70;;;20.70;51.90;;;;;;5072034;28;20297;-54
2023/03/26 13:01:18;;;;;;;2.67;1.42;;;20.70;51.80;;;;;;5072287;28;20289;-55
2023/03/26 13:04:05;;;;;;;2.55;1.20;;;20.70;51.80;;;;;;5084593;28;20193;-56
2023/03/26 13:06:43;;;;;;;2.50;1.60;;;20.70;51.80;;;;;;5093147;28;20222;-56
2023/03/26 13:09:39;;;;;;;2.67;1.48;;;20.70;51.80;;;;;;5092099;28;20693;-50
2023/03/26 13:12:25;;;;;;;1.70;1.33;;;20.60;51.80;;;;;;5092331;28;20201;-51
2023/03/26 13:15:09;;;;;;;1.60;1.30;;;20.60;51.90;;;;;;5092837;28;20275;-51
2023/03/26 13:17:51;;;;;;;1.60;1.20;;;20.60;51.90;;;;;;5093029;28;20200;-53
2023/03/26 13:20:29;;;;;;;2.53;1.30;;;20.60;51.90;;;;;;5092896;28;20197;-54
2023/03/26 13:23:09;;;;;;;2.00;1.40;;;20.60;51.90;;;;;;5092120;28;20194;-54
2023/03/26 13:25:46;;;;;;;2.35;1.25;;;20.60;51.90;;;;;;5091532;28;20202;-53
2023/03/26 13:28:29;;;;;;;1.83;1.27;;;20.50;51.90;;;;;;5071916;28;20353;-52
2023/03/26 13:31:09;;;;;;;1.75;1.00;;;20.50;51.90;;;;;;5072143;28;20254;-55
2023/03/26 13:33:51;;;;;;;2.03;1.33;;;20.60;51.90;;;;;;5072283;28;20203;-55
2023/03/26 13:36:27;;;;;;;2.20;1.30;;;20.50;51.90;;;;;;5072171;28;20230;-54
2023/03/26 13:39:08;;;;;;;1.67;1.25;;;20.50;51.90;;;;;;5072201;28;20219;-52
2023/03/26 13:41:52;;;;;;;1.77;1.38;;;20.50;51.90;;;;;;5071971;28;20277;-52